Time;durP1;ratioP1;P1;durP2;ratioP2;P2;SDS_P1;SDS_P2;PMS_P1;PMS_P2;Temp;Humidity;BMP_temperature;BMP_pressure;BME280_temperature;BME280_humidity;BME280_pressure;Samples;Min_cycle;Max_cycle;Signal;HPM_P1;HPM_P2
2022/11/30 00:01:22;;;;;;;4.72;2.10;;;;;;;-5.01;100.00;101968.81;1648815;86;21102;-66
2022/11/30 00:03:57;;;;;;;10.20;2.90;;;;;;;-5.01;100.00;101975.17;1648392;85;22585;-66
2022/11/30 00:06:24;;;;;;;7.62;1.77;;;;;;;-5.03;100.00;101969.30;1653301;85;20979;-66
2022/11/30 00:08:55;;;;;;;8.03;2.33;;;;;;;-5.05;100.00;101974.85;1700039;84;21525;-66
2022/11/30 00:11:24;;;;;;;5.10;2.25;;;;;;;-5.04;100.00;101972.25;1699677;84;21012;-66
2022/11/30 00:13:51;;;;;;;6.58;2.72;;;;;;;-5.04;100.00;101976.52;1699850;84;21184;-66
2022/11/30 00:16:21;;;;;;;6.85;2.08;;;;;;;-5.04;100.00;101973.53;1699697;84;21900;-66
2022/11/30 00:18:48;;;;;;;9.48;2.55;;;;;;;-5.07;100.00;101966.01;1684224;84;21486;-67
2022/11/30 00:21:16;;;;;;;5.33;2.33;;;;;;;-5.06;100.00;101973.20;1671866;85;21081;-67
2022/11/30 00:23:44;;;;;;;6.40;2.60;;;;;;;-5.08;100.00;101970.67;1678169;82;21005;-66
2022/11/30 00:26:14;;;;;;;7.47;2.25;;;;;;;-5.10;100.00;101974.16;1680486;84;20952;-67
2022/11/30 00:28:42;;;;;;;10.93;2.60;;;;;;;-5.10;100.00;101973.71;1671772;85;21252;-66
2022/11/30 00:31:12;;;;;;;7.33;1.87;;;;;;;-5.11;100.00;101961.02;1671722;85;21070;-67
2022/11/30 00:33:39;;;;;;;6.25;2.35;;;;;;;-5.11;100.00;101958.06;1671255;85;20999;-66
2022/11/30 00:36:11;;;;;;;6.17;1.92;;;;;;;-5.11;100.00;101955.52;1671629;85;21043;-66
2022/11/30 00:38:38;;;;;;;6.58;2.33;;;;;;;-5.11;100.00;101962.29;1671905;85;21071;-66
2022/11/30 00:41:07;;;;;;;6.45;2.60;;;;;;;-5.12;100.00;101958.09;1671462;85;20917;-67
2022/11/30 00:43:35;;;;;;;6.12;2.22;;;;;;;-5.11;100.00;101961.02;1674007;84;20980;-66
2022/11/30 00:46:03;;;;;;;7.25;1.82;;;;;;;-5.10;100.00;101956.36;1687817;84;22508;-66
2022/11/30 00:48:30;;;;;;;4.87;1.92;;;;;;;-5.10;100.00;101948.28;1700026;84;20921;-66
2022/11/30 00:50:58;;;;;;;6.22;1.57;;;;;;;-5.10;100.00;101957.19;1700043;84;20949;-66
2022/11/30 00:53:26;;;;;;;7.45;2.12;;;;;;;-5.11;100.00;101964.83;1699558;84;21161;-66
2022/11/30 00:55:53;;;;;;;5.45;2.12;;;;;;;-5.14;100.00;101951.34;1699707;83;21312;-66
2022/11/30 00:58:21;;;;;;;5.30;1.87;;;;;;;-5.13;100.00;101950.91;1700399;84;20893;-68
2022/11/30 01:00:49;;;;;;;7.03;2.00;;;;;;;-5.12;100.00;101949.19;1700368;84;20881;-68
2022/11/30 01:03:17;;;;;;;9.60;2.40;;;;;;;-5.16;100.00;101954.35;1700366;83;20945;-69
2022/11/30 01:05:46;;;;;;;7.08;1.62;;;;;;;-5.16;100.00;101953.08;1699415;84;21212;-68
2022/11/30 01:08:13;;;;;;;4.55;1.72;;;;;;;-5.14;100.00;101965.33;1700120;84;21572;-68
2022/11/30 01:10:42;;;;;;;5.40;2.27;;;;;;;-5.10;100.00;101936.02;1700039;84;21069;-68
2022/11/30 01:13:12;;;;;;;14.70;2.87;;;;;;;-5.11;100.00;101938.14;1700035;84;20956;-68
2022/11/30 01:15:42;;;;;;;6.33;1.62;;;;;;;-5.12;100.00;101932.66;1699148;84;20961;-68
2022/11/30 01:18:09;;;;;;;7.17;1.70;;;;;;;-5.12;100.00;101942.83;1700417;84;21521;-67
2022/11/30 01:20:41;;;;;;;4.30;1.65;;;;;;;-5.16;100.00;101936.55;1700259;84;21044;-66
2022/11/30 01:23:09;;;;;;;5.75;1.98;;;;;;;-5.18;100.00;101937.49;1700342;84;20940;-66
2022/11/30 01:25:37;;;;;;;6.05;2.75;;;;;;;-5.21;100.00;101955.36;1699163;84;20999;-66
2022/11/30 01:28:04;;;;;;;6.55;2.10;;;;;;;-5.21;100.00;101947.30;1700112;84;22010;-66
2022/11/30 01:30:32;;;;;;;6.60;1.70;;;;;;;-5.21;100.00;101914.69;1700175;84;21783;-66
2022/11/30 01:33:04;;;;;;;6.33;1.82;;;;;;;-5.21;100.00;101934.58;1700638;83;20995;-66
2022/11/30 01:35:31;;;;;;;7.15;2.50;;;;;;;-5.21;100.00;101932.05;1699421;83;21558;-67
2022/11/30 01:37:59;;;;;;;5.92;2.17;;;;;;;-5.18;100.00;101928.16;1699925;84;22215;-66
2022/11/30 01:40:26;;;;;;;6.67;2.00;;;;;;;-5.19;100.00;101932.84;1700192;84;20987;-66
2022/11/30 01:42:54;;;;;;;6.20;2.05;;;;;;;-5.20;100.00;101927.34;1700115;84;21569;-66
2022/11/30 01:45:21;;;;;;;6.00;1.50;;;;;;;-5.20;100.00;101927.34;1689082;82;21083;-64
2022/11/30 01:47:54;;;;;;;8.35;1.75;;;;;;;-5.22;100.00;101935.47;1679633;84;21678;-66
2022/11/30 01:50:25;;;;;;;8.00;1.87;;;;;;;-5.22;100.00;101944.80;1672186;84;20893;-66
2022/11/30 01:52:55;;;;;;;5.00;1.52;;;;;;;-5.21;100.00;101948.56;1671832;85;20972;-66
2022/11/30 01:55:38;;;;;;;5.67;1.70;;;;;;;-5.21;100.00;101943.48;1670745;85;21146;-67
2022/11/30 01:58:08;;;;;;;4.20;1.35;;;;;;;-5.21;100.00;101928.23;1671877;85;20964;-67
2022/11/30 02:00:36;;;;;;;6.95;1.87;;;;;;;-5.22;100.00;101939.72;1671917;85;21588;-67
2022/11/30 02:03:14;;;;;;;11.50;1.77;;;;;;;-5.25;100.00;101938.08;1671348;85;21549;-66
2022/11/30 02:05:41;;;;;;;7.58;1.42;;;;;;;-5.22;100.00;101951.98;1676724;85;21106;-66
2022/11/30 02:08:09;;;;;;;4.58;1.62;;;;;;;-5.26;100.00;101937.70;1677426;85;21148;-66
2022/11/30 02:10:41;;;;;;;4.12;1.67;;;;;;;-5.26;100.00;101947.86;1677259;85;21016;-66
2022/11/30 02:13:23;;;;;;;6.62;1.75;;;;;;;-5.25;100.00;101946.98;1688671;84;23183;-66
2022/11/30 02:16:14;;;;;;;5.28;1.62;;;;;;;-5.27;100.00;101943.62;1683345;85;21489;-66
2022/11/30 02:19:05;;;;;;;5.35;1.45;;;;;;;-5.27;100.00;101936.00;1683097;85;21002;-67
2022/11/30 02:22:08;;;;;;;3.62;1.20;;;;;;;-5.23;100.00;101945.66;1683398;85;21639;-67
2022/11/30 02:25:10;;;;;;;5.60;1.42;;;;;;;-5.23;100.00;101944.38;1650187;85;21555;-66
2022/11/30 02:27:59;;;;;;;8.95;1.50;;;;;;;-5.23;100.00;101941.43;1629519;87;26950;-67
2022/11/30 02:30:26;;;;;;;4.78;2.08;;;;;;;-5.25;100.00;101943.16;1662026;85;20984;-68
2022/11/30 02:33:08;;;;;;;6.10;1.82;;;;;;;-5.23;100.00;101945.25;1675935;85;21565;-67
2022/11/30 02:35:36;;;;;;;7.62;3.40;;;;;;;-5.24;100.00;101954.16;1676317;85;21222;-67
2022/11/30 02:38:05;;;;;;;5.55;1.37;;;;;;;-5.25;100.00;101946.15;1676052;85;21043;-66
2022/11/30 02:40:33;;;;;;;5.47;1.47;;;;;;;-5.26;100.00;101948.30;1675928;85;20912;-66
2022/11/30 02:43:01;;;;;;;5.80;2.08;;;;;;;-5.27;100.00;101953.80;1705723;83;21087;-66
2022/11/30 02:45:35;;;;;;;6.20;1.35;;;;;;;-5.26;100.00;101952.95;1705650;84;21553;-68
2022/11/30 02:48:07;;;;;;;7.45;1.72;;;;;;;-5.23;100.00;101955.41;1705493;84;21838;-66
2022/11/30 02:50:45;;;;;;;5.08;2.08;;;;;;;-5.24;100.00;101960.52;1705650;84;21007;-66
2022/11/30 02:53:12;;;;;;;7.55;1.40;;;;;;;-5.25;100.00;101958.41;1702985;84;21117;-68
2022/11/30 02:55:39;;;;;;;5.08;1.20;;;;;;;-5.24;100.00;101952.89;1691139;84;20952;-67
2022/11/30 02:58:07;;;;;;;4.75;1.45;;;;;;;-5.25;100.00;101959.69;1677335;85;21754;-67
2022/11/30 03:00:35;;;;;;;5.92;1.60;;;;;;;-5.26;100.00;101962.28;1677162;85;21270;-67
2022/11/30 03:03:02;;;;;;;11.33;2.40;;;;;;;-5.27;100.00;101952.97;1676794;85;21134;-68
2022/11/30 03:05:29;;;;;;;4.60;1.30;;;;;;;-5.27;100.00;101960.15;1681552;82;21651;-67
2022/11/30 03:07:58;;;;;;;7.35;1.45;;;;;;;-5.27;100.00;101959.32;1677997;84;21059;-65
2022/11/30 03:10:26;;;;;;;5.47;1.65;;;;;;;-5.30;100.00;101982.27;1676899;84;21027;-66
2022/11/30 03:12:59;;;;;;;9.55;1.40;;;;;;;-5.29;100.00;101951.75;1677298;85;21230;-67
2022/11/30 03:15:26;;;;;;;5.87;1.35;;;;;;;-5.27;100.00;101952.97;1661110;86;21596;-66
2022/11/30 03:17:55;;;;;;;4.83;1.42;;;;;;;-5.26;100.00;101968.64;1661106;86;20916;-66
2022/11/30 03:20:22;;;;;;;4.00;1.75;;;;;;;-5.27;100.00;101969.05;1660241;86;21078;-66
2022/11/30 03:22:50;;;;;;;7.95;2.00;;;;;;;-5.28;100.00;101958.94;1661065;86;21098;-66
2022/11/30 03:25:17;;;;;;;3.98;1.60;;;;;;;-5.29;100.00;101956.83;1660278;86;21228;-66
2022/11/30 03:27:45;;;;;;;4.03;1.40;;;;;;;-5.30;100.00;101975.50;1661065;86;21074;-66
2022/11/30 03:30:13;;;;;;;8.73;1.30;;;;;;;-5.32;100.00;101956.91;1660713;86;20860;-67
2022/11/30 03:32:40;;;;;;;6.70;1.55;;;;;;;-5.30;100.00;101957.72;1663057;83;20999;-66
2022/11/30 03:35:08;;;;;;;9.90;1.50;;;;;;;-5.30;100.00;101950.09;1653107;85;21079;-66
2022/11/30 03:37:35;;;;;;;4.95;1.52;;;;;;;-5.31;100.00;101948.40;1652934;86;22339;-66
2022/11/30 03:40:04;;;;;;;5.75;1.55;;;;;;;-5.29;100.00;101946.66;1677458;84;21019;-66
2022/11/30 03:42:33;;;;;;;4.35;1.45;;;;;;;-5.28;100.00;101957.22;1677082;85;20904;-66
2022/11/30 03:45:01;;;;;;;8.00;1.57;;;;;;;-5.27;100.00;101951.25;1677265;85;21126;-66
2022/11/30 03:47:28;;;;;;;4.97;1.40;;;;;;;-5.28;100.00;101943.24;1677216;85;21043;-66
2022/11/30 03:49:58;;;;;;;5.95;1.30;;;;;;;-5.28;100.00;101950.86;1697338;84;21391;-66
2022/11/30 03:52:25;;;;;;;4.40;1.12;;;;;;;-5.27;100.00;101947.44;1705253;84;21572;-67
2022/11/30 03:54:54;;;;;;;7.50;1.52;;;;;;;-5.26;100.00;101956.76;1705863;84;21019;-66
2022/11/30 03:57:21;;;;;;;4.12;1.15;;;;;;;-5.23;100.00;101945.25;1705322;84;21501;-66
2022/11/30 03:59:48;;;;;;;4.50;1.15;;;;;;;-5.24;100.00;101945.27;1705724;84;21097;-66
2022/11/30 04:02:16;;;;;;;8.60;1.55;;;;;;;-5.22;100.00;101940.55;1705344;84;21157;-65
2022/11/30 04:04:45;;;;;;;8.03;1.67;;;;;;;-5.20;100.00;101978.63;1705752;83;20919;-66
2022/11/30 04:07:12;;;;;;;8.68;1.40;;;;;;;-5.19;100.00;101944.29;1705621;84;20956;-66
2022/11/30 04:09:40;;;;;;;4.80;1.07;;;;;;;-5.17;100.00;101941.69;1702623;84;21418;-66
2022/11/30 04:12:08;;;;;;;10.00;2.08;;;;;;;-5.17;100.00;101937.44;1691118;83;21120;-66
2022/11/30 04:14:37;;;;;;;5.65;1.52;;;;;;;-5.17;100.00;101938.71;1677351;85;21124;-66
2022/11/30 04:17:04;;;;;;;10.23;2.50;;;;;;;-5.16;100.00;101947.16;1677556;85;21024;-66
2022/11/30 04:19:31;;;;;;;6.92;1.52;;;;;;;-5.15;100.00;101943.33;1676836;85;21007;-68
2022/11/30 04:22:00;;;;;;;9.08;2.65;;;;;;;-5.14;100.00;101937.36;1676977;85;22310;-68
2022/11/30 04:24:27;;;;;;;8.58;1.72;;;;;;;-5.13;100.00;101948.36;1677392;85;21832;-68
2022/11/30 04:26:55;;;;;;;4.85;1.27;;;;;;;-5.12;100.00;101947.48;1677597;85;22100;-68
2022/11/30 04:29:22;;;;;;;6.53;1.15;;;;;;;-5.10;100.00;101945.74;1677199;84;21029;-67
2022/11/30 04:31:50;;;;;;;4.60;1.15;;;;;;;-5.10;100.00;101944.91;1676629;85;20955;-66
2022/11/30 04:34:17;;;;;;;4.12;1.30;;;;;;;-5.11;100.00;101926.70;1677018;85;21557;-66
2022/11/30 04:36:45;;;;;;;6.15;1.20;;;;;;;-5.11;100.00;101940.68;1703977;84;20956;-66
2022/11/30 04:39:13;;;;;;;9.30;1.60;;;;;;;-5.11;100.00;101943.22;1705704;84;22723;-66
2022/11/30 04:41:41;;;;;;;8.40;2.02;;;;;;;-5.09;100.00;101945.30;1705310;84;20932;-66
2022/11/30 04:44:09;;;;;;;10.90;3.27;;;;;;;-5.07;100.00;101942.30;1699678;82;21014;-66
2022/11/30 04:46:37;;;;;;;4.67;1.05;;;;;;;-5.09;100.00;101933.86;1693495;84;21492;-66
2022/11/30 04:49:05;;;;;;;5.00;1.42;;;;;;;-5.08;100.00;101939.33;1705885;84;21616;-66
2022/11/30 04:51:33;;;;;;;3.08;1.17;;;;;;;-5.08;100.00;101933.80;1705859;84;21227;-66
2022/11/30 04:54:00;;;;;;;6.67;1.40;;;;;;;-5.08;100.00;101932.98;1705095;84;21534;-66
2022/11/30 04:56:29;;;;;;;10.32;1.70;;;;;;;-5.07;100.00;101925.77;1705698;84;21046;-66
2022/11/30 04:58:56;;;;;;;7.40;1.50;;;;;;;-5.07;100.00;101937.21;1705998;84;21012;-66
2022/11/30 05:01:24;;;;;;;3.72;1.47;;;;;;;-5.07;100.00;101927.04;1705829;84;20976;-66
2022/11/30 05:03:51;;;;;;;11.93;1.98;;;;;;;-5.06;100.00;101928.70;1704975;84;21829;-67
2022/11/30 05:06:20;;;;;;;4.65;1.40;;;;;;;-5.04;100.00;101926.93;1701726;83;20985;-66
2022/11/30 05:08:47;;;;;;;6.12;1.52;;;;;;;-5.02;100.00;101929.84;1700089;84;21525;-66
2022/11/30 05:11:16;;;;;;;7.40;1.80;;;;;;;-5.00;100.00;101933.19;1700030;84;21003;-66
2022/11/30 05:13:44;;;;;;;5.83;1.70;;;;;;;-4.95;100.00;101946.59;1700204;84;20861;-66
2022/11/30 05:16:12;;;;;;;8.23;1.50;;;;;;;-4.87;100.00;101955.29;1699247;84;21222;-66
2022/11/30 05:18:40;;;;;;;10.10;1.60;;;;;;;-4.81;100.00;101957.67;1700252;84;20928;-68
2022/11/30 05:21:07;;;;;;;9.38;2.05;;;;;;;-4.75;100.00;101951.56;1694683;83;20964;-68
2022/11/30 05:23:35;;;;;;;7.28;1.90;;;;;;;-4.76;100.00;101966.00;1671363;85;21553;-68
2022/11/30 05:26:02;;;;;;;6.95;1.52;;;;;;;-4.73;100.00;101957.02;1681579;84;20901;-66
2022/11/30 05:28:30;;;;;;;7.03;1.90;;;;;;;-4.65;100.00;101984.34;1700006;84;21139;-65
2022/11/30 05:31:03;;;;;;;10.63;1.80;;;;;;;-4.51;100.00;101974.20;1699896;84;20945;-67
2022/11/30 05:33:30;;;;;;;8.43;2.25;;;;;;;-4.45;100.00;101960.03;1699042;84;20920;-67
2022/11/30 05:35:58;;;;;;;10.35;1.75;;;;;;;-4.45;100.00;101967.67;1686035;84;22002;-65
2022/11/30 05:38:26;;;;;;;7.55;1.77;;;;;;;-4.44;100.00;101981.61;1700323;84;21589;-65
2022/11/30 05:41:00;;;;;;;22.80;2.47;;;;;;;-4.41;100.00;101989.16;1700259;83;21135;-65
2022/11/30 05:43:28;;;;;;;17.10;2.10;;;;;;;-4.41;100.00;101969.25;1698966;84;20995;-67
2022/11/30 05:46:04;;;;;;;7.92;1.70;;;;;;;-4.39;100.00;101982.78;1699611;84;21019;-66
2022/11/30 05:48:32;;;;;;;7.25;1.85;;;;;;;-4.28;100.00;101970.56;1700198;84;21013;-67
2022/11/30 05:51:11;;;;;;;14.18;2.37;;;;;;;-3.93;100.00;101977.12;1700121;84;21039;-67
2022/11/30 05:53:38;;;;;;;9.98;2.50;;;;;;;-3.68;100.00;101977.61;1699820;84;21220;-68
2022/11/30 05:56:10;;;;;;;10.82;1.80;;;;;;;-3.56;100.00;101981.48;1700158;84;20964;-67
2022/11/30 05:58:37;;;;;;;9.05;1.72;;;;;;;-3.49;100.00;101976.13;1700110;84;21573;-67
2022/11/30 06:01:06;;;;;;;6.10;1.75;;;;;;;-3.40;100.00;101975.02;1699411;84;21467;-67
2022/11/30 06:03:35;;;;;;;8.08;1.87;;;;;;;-3.31;100.00;101984.89;1699635;84;21667;-68
2022/11/30 06:06:03;;;;;;;6.90;2.27;;;;;;;-3.36;100.00;101982.95;1701372;84;21165;-66
2022/11/30 06:08:30;;;;;;;11.12;2.17;;;;;;;-3.40;100.00;101985.66;1706023;84;21514;-65
2022/11/30 06:11:00;;;;;;;7.40;2.37;;;;;;;-3.41;100.00;101986.08;1705755;84;21043;-66
2022/11/30 06:13:27;;;;;;;4.95;1.60;;;;;;;-3.36;100.00;101986.77;1705344;84;21073;-66
2022/11/30 06:15:58;;;;;;;6.70;1.77;;;;;;;-3.38;100.00;101985.15;1705488;84;21066;-66
2022/11/30 06:18:25;;;;;;;7.65;2.62;;;;;;;-3.50;100.00;101996.14;1673701;84;21326;-65
2022/11/30 06:21:00;;;;;;;6.22;1.77;;;;;;;-3.61;100.00;101990.55;1689330;84;21035;-66
2022/11/30 06:23:27;;;;;;;9.08;2.22;;;;;;;-3.69;100.00;102005.27;1677094;85;21130;-66
2022/11/30 06:25:54;;;;;;;8.53;2.17;;;;;;;-3.72;100.00;102002.80;1676892;85;22320;-66
2022/11/30 06:28:24;;;;;;;5.08;1.20;;;;;;;-3.69;100.00;101990.80;1677445;85;21060;-66
2022/11/30 06:30:52;;;;;;;8.03;2.47;;;;;;;-3.61;100.00;101994.83;1677437;85;21217;-66
2022/11/30 06:33:22;;;;;;;9.63;2.80;;;;;;;-3.58;100.00;101994.73;1676890;85;20920;-67
2022/11/30 06:35:50;;;;;;;10.23;2.75;;;;;;;-3.54;100.00;101994.58;1693049;84;21154;-66
2022/11/30 06:38:17;;;;;;;8.33;1.92;;;;;;;-3.43;100.00;102000.61;1677746;84;21518;-65
2022/11/30 06:40:45;;;;;;;14.20;2.50;;;;;;;-3.26;100.00;101993.24;1677479;85;21036;-66
2022/11/30 06:43:12;;;;;;;6.05;2.35;;;;;;;-3.15;100.00;102002.23;1677978;85;21180;-66
2022/11/30 06:45:45;;;;;;;11.20;2.02;;;;;;;-3.15;100.00;102011.98;1676467;85;20952;-66
2022/11/30 06:48:12;;;;;;;;;;;;;;;-3.19;100.00;102006.16;1688739;84;22142;-66
2022/11/30 06:50:40;;;;;;;6.15;1.82;;;;;;;-3.17;100.00;102015.49;1705973;84;20132;-66
2022/11/30 06:53:08;;;;;;;10.98;2.62;;;;;;;-3.16;100.00;102006.95;1705947;84;20979;-66
2022/11/30 06:55:37;;;;;;;11.78;3.08;;;;;;;-3.09;100.00;102013.52;1705579;84;21151;-67
2022/11/30 06:58:08;;;;;;;8.73;2.55;;;;;;;-3.04;100.00;102020.56;1705502;84;21110;-66
2022/11/30 07:00:36;;;;;;;9.55;3.05;;;;;;;-2.96;100.00;102004.09;1705876;84;20964;-66
2022/11/30 07:03:04;;;;;;;14.33;3.85;;;;;;;-2.91;100.00;102015.44;1703859;84;21502;-66
2022/11/30 07:05:38;;;;;;;15.72;4.33;;;;;;;-2.87;100.00;102009.79;1672853;84;21466;-66
2022/11/30 07:08:06;;;;;;;8.45;3.47;;;;;;;-2.86;100.00;102018.66;1675268;85;22127;-65
2022/11/30 07:10:43;;;;;;;11.40;4.25;;;;;;;-2.87;100.00;101999.13;1676385;85;21549;-67
2022/11/30 07:13:13;;;;;;;9.55;4.90;;;;;;;-2.78;100.00;102009.00;1675357;85;21008;-70
2022/11/30 07:15:41;;;;;;;10.30;4.30;;;;;;;-2.64;100.00;101996.21;1675636;85;21557;-71
2022/11/30 07:18:08;;;;;;;12.90;5.37;;;;;;;-2.49;100.00;102000.76;1676340;85;22396;-69
2022/11/30 07:20:37;;;;;;;21.37;8.60;;;;;;;-2.40;100.00;102005.97;1676269;85;21262;-69
2022/11/30 07:26:06;;;;;;;19.20;7.75;;;;;;;-2.07;100.00;102015.38;1648827;86;21087;-69
2022/11/30 07:28:36;;;;;;;11.83;4.25;;;;;;;-1.87;100.00;102011.59;1636682;87;21035;-68
2022/11/30 07:31:28;;;;;;;13.90;4.70;;;;;;;-1.58;100.00;102003.23;1636507;86;21076;-68
2022/11/30 07:33:56;;;;;;;7.87;2.42;;;;;;;-1.40;100.00;101994.81;1636948;87;21190;-68
2022/11/30 07:36:24;;;;;;;9.78;2.83;;;;;;;-1.36;100.00;102000.19;1637181;86;20973;-69
2022/11/30 07:38:52;;;;;;;5.60;2.20;;;;;;;-1.30;100.00;101997.36;1647802;86;21074;-69
2022/11/30 07:41:19;;;;;;;10.75;4.67;;;;;;;-1.15;99.85;102006.57;1664168;86;21513;-68
2022/11/30 07:43:46;;;;;;;14.95;6.67;;;;;;;-0.90;98.29;102009.77;1663962;84;21090;-69
2022/11/30 07:46:14;;;;;;;9.28;5.67;;;;;;;-0.60;95.21;101981.98;1663934;84;22177;-68
2022/11/30 07:48:41;;;;;;;6.95;2.47;;;;;;;-0.33;88.15;102005.98;1663526;84;20891;-68
2022/11/30 07:51:17;;;;;;;8.33;3.65;;;;;;;-0.12;85.29;101995.18;1663316;84;21081;-67
2022/11/30 07:53:45;;;;;;;8.10;2.67;;;;;;;0.11;80.11;101999.23;1663935;84;20978;-68
2022/11/30 07:56:15;;;;;;;7.75;2.52;;;;;;;0.17;75.42;102001.06;1664024;84;20998;-68
2022/11/30 07:58:42;;;;;;;9.10;2.05;;;;;;;0.16;73.34;101985.30;1663850;86;21196;-68
2022/11/30 08:01:15;;;;;;;12.05;3.83;;;;;;;0.07;70.72;101987.45;1652541;84;20972;-69
2022/11/30 08:03:43;;;;;;;8.63;4.20;;;;;;;-0.07;71.16;101984.28;1660858;86;22265;-68
2022/11/30 08:06:14;;;;;;;7.28;2.87;;;;;;;-0.20;73.68;101984.45;1661026;84;21044;-68
2022/11/30 08:08:43;;;;;;;6.67;2.45;;;;;;;-0.30;72.69;101974.64;1666290;86;21072;-68
2022/11/30 08:11:12;;;;;;;6.05;2.00;;;;;;;-0.46;73.71;101977.50;1666080;86;21074;-68
2022/11/30 08:13:39;;;;;;;7.05;2.60;;;;;;;-0.65;74.04;101971.09;1675319;85;21143;-68
2022/11/30 08:16:13;;;;;;;9.30;2.10;;;;;;;-0.82;76.91;101985.94;1663910;86;22231;-68
2022/11/30 08:18:40;;;;;;;6.30;2.10;;;;;;;-0.91;79.93;101977.39;1658108;86;22295;-69
2022/11/30 08:21:10;;;;;;;8.10;2.22;;;;;;;-1.00;81.37;101973.93;1638735;87;21556;-68
2022/11/30 08:23:43;;;;;;;6.97;1.82;;;;;;;-1.08;82.97;101960.64;1650852;86;21895;-69
2022/11/30 08:26:19;;;;;;;12.05;2.37;;;;;;;-1.10;84.10;101967.53;1639025;87;20927;-70
2022/11/30 08:28:48;;;;;;;5.87;2.15;;;;;;;-1.11;85.32;101955.64;1638804;87;21057;-71
2022/11/30 08:31:31;;;;;;;7.12;2.08;;;;;;;-1.08;85.12;101951.68;1639406;86;21470;-70
2022/11/30 08:34:03;;;;;;;9.00;2.22;;;;;;;-0.99;83.77;101957.66;1638051;87;21161;-71
2022/11/30 08:36:31;;;;;;;10.95;2.62;;;;;;;-0.86;80.39;101956.25;1637993;87;21251;-68
2022/11/30 08:38:58;;;;;;;5.50;1.95;;;;;;;-0.69;77.79;101948.26;1639089;87;20962;-69
2022/11/30 08:41:26;;;;;;;5.60;1.40;;;;;;;-0.43;78.91;101945.80;1639405;87;21093;-69
2022/11/30 08:43:54;;;;;;;7.22;2.17;;;;;;;-0.21;72.11;101955.89;1638549;87;21008;-68
2022/11/30 08:46:23;;;;;;;5.22;1.40;;;;;;;-0.07;68.70;101940.25;1639000;86;21403;-68
2022/11/30 08:48:50;;;;;;;7.10;2.75;;;;;;;0.09;62.70;101944.19;1639143;87;22433;-68
2022/11/30 08:51:18;;;;;;;6.55;1.47;;;;;;;0.12;59.66;101935.07;1649826;86;21030;-68
2022/11/30 08:53:46;;;;;;;6.97;1.80;;;;;;;0.14;57.58;101939.66;1666314;86;21007;-68
2022/11/30 08:56:17;;;;;;;5.45;1.87;;;;;;;0.20;56.94;101932.13;1666138;86;21011;-68
2022/11/30 08:58:44;;;;;;;9.68;1.80;;;;;;;0.29;56.49;101940.64;1666126;86;21092;-68
2022/11/30 09:01:14;;;;;;;8.53;2.30;;;;;;;0.43;56.49;101947.67;1666517;86;21702;-68
2022/11/30 09:03:42;;;;;;;8.28;1.35;;;;;;;0.50;56.38;101951.59;1666189;86;20892;-68
2022/11/30 09:06:18;;;;;;;5.50;1.50;;;;;;;0.50;54.95;101945.19;1666135;86;21418;-67
2022/11/30 09:08:46;;;;;;;6.80;1.60;;;;;;;0.40;54.31;101940.12;1658404;85;21086;-67
2022/11/30 09:11:25;;;;;;;9.58;2.08;;;;;;;0.29;53.90;101951.36;1658788;85;20987;-67
2022/11/30 09:13:55;;;;;;;3.55;1.35;;;;;;;0.23;54.15;101952.05;1658366;85;21170;-69
2022/11/30 09:16:22;;;;;;;9.05;2.47;;;;;;;0.21;53.53;101928.20;1658160;86;20900;-68
2022/11/30 09:18:51;;;;;;;8.08;2.98;;;;;;;0.16;54.13;101936.58;1658606;86;21296;-67
2022/11/30 09:21:21;;;;;;;8.60;2.47;;;;;;;0.20;54.91;101946.23;1658698;86;21098;-67
2022/11/30 09:23:49;;;;;;;5.47;1.70;;;;;;;0.25;54.83;101942.98;1658544;86;21033;-67
2022/11/30 09:26:18;;;;;;;4.58;1.70;;;;;;;0.24;53.95;101942.62;1658448;85;21239;-67
2022/11/30 09:28:46;;;;;;;7.83;1.80;;;;;;;0.20;54.11;101949.63;1658512;86;21030;-66
2022/11/30 09:31:17;;;;;;;6.42;1.77;;;;;;;0.18;54.25;101942.45;1637231;86;20984;-67
2022/11/30 09:33:44;;;;;;;;;;;;;;;0.19;54.89;101951.82;1659381;86;21462;-66
2022/11/30 09:36:14;;;;;;;7.15;1.92;;;;;;;0.21;54.76;101935.89;1658741;86;20153;-66
2022/11/30 09:38:42;;;;;;;4.95;1.47;;;;;;;0.22;54.71;101934.16;1652281;86;21300;-66
2022/11/30 09:41:35;;;;;;;4.58;1.52;;;;;;;0.26;54.11;101936.12;1658541;86;20995;-67
2022/11/30 09:44:13;;;;;;;5.00;1.32;;;;;;;0.27;54.06;101928.83;1641752;86;21426;-67
2022/11/30 09:46:49;;;;;;;8.43;1.80;;;;;;;0.27;53.85;101924.97;1631226;87;20963;-67
2022/11/30 09:49:28;;;;;;;5.65;2.20;;;;;;;0.30;53.60;101936.34;1631837;87;21125;-66
2022/11/30 09:51:57;;;;;;;6.28;1.57;;;;;;;0.29;53.89;101934.23;1631039;87;22377;-67
2022/11/30 09:54:35;;;;;;;8.65;2.70;;;;;;;0.33;53.90;101950.30;1631640;87;21576;-69
2022/11/30 09:57:35;;;;;;;6.65;2.42;;;;;;;0.37;53.94;101926.98;1631902;87;21012;-67
2022/11/30 10:00:16;;;;;;;7.53;1.47;;;;;;;0.42;54.03;101937.05;1637513;86;20945;-67
2022/11/30 10:02:43;;;;;;;4.67;1.72;;;;;;;0.48;53.51;101936.72;1648953;84;20971;-66
2022/11/30 10:05:26;;;;;;;5.87;1.30;;;;;;;0.55;53.42;101938.08;1642478;86;21171;-67
2022/11/30 10:08:32;;;;;;;2.35;1.05;;;;;;;0.64;51.86;101932.47;1631539;86;21439;-66
2022/11/30 10:11:46;;;;;;;5.97;1.90;;;;;;;0.72;51.73;101928.27;1650674;86;21110;-67
2022/11/30 10:14:54;;;;;;;4.20;1.70;;;;;;;0.81;51.36;101925.20;1658226;86;21376;-68
2022/11/30 10:17:53;;;;;;;5.10;1.30;;;;;;;0.99;51.13;101934.17;1658143;86;21078;-67
2022/11/30 10:20:37;;;;;;;6.45;2.17;;;;;;;1.23;50.12;101920.48;1658475;86;21453;-65
2022/11/30 10:23:28;;;;;;;7.70;2.20;;;;;;;1.48;49.45;101909.69;1658132;86;21065;-68
2022/11/30 10:26:13;;;;;;;4.90;1.65;;;;;;;1.81;49.10;101898.02;1645204;86;21050;-66
2022/11/30 10:28:54;;;;;;;4.87;1.30;;;;;;;2.15;47.84;101901.61;1636339;86;21414;-64
2022/11/30 10:31:36;;;;;;;6.78;1.10;;;;;;;2.33;47.33;101892.47;1659287;86;21026;-65
2022/11/30 10:34:34;;;;;;;4.72;1.05;;;;;;;2.54;46.71;101902.81;1656398;86;21284;-70
2022/11/30 10:37:22;;;;;;;4.37;1.22;;;;;;;2.61;45.71;101912.27;1633339;87;21488;-67
2022/11/30 10:39:59;;;;;;;7.97;1.75;;;;;;;2.59;45.57;101886.63;1644618;87;21035;-65
2022/11/30 10:42:36;;;;;;;5.08;1.65;;;;;;;2.68;45.71;101882.66;1655386;86;21565;-66
2022/11/30 10:45:13;;;;;;;7.30;1.90;;;;;;;2.79;45.39;101894.90;1650098;85;20892;-70
2022/11/30 10:47:47;;;;;;;5.03;2.15;;;;;;;2.81;45.20;101884.88;1672780;85;21196;-65
2022/11/30 10:50:15;;;;;;;5.05;2.08;;;;;;;2.75;44.83;101901.16;1673419;84;20999;-65
2022/11/30 10:52:51;;;;;;;6.75;1.75;;;;;;;2.58;45.32;101879.83;1673363;85;20912;-66
2022/11/30 10:55:21;;;;;;;4.03;1.35;;;;;;;2.48;45.80;101891.58;1672943;85;21089;-66
2022/11/30 10:57:56;;;;;;;4.35;1.30;;;;;;;2.32;45.77;101902.41;1673529;85;21046;-65
2022/11/30 11:00:24;;;;;;;8.25;1.82;;;;;;;2.12;45.98;101882.95;1673082;85;21904;-68
2022/11/30 11:02:51;;;;;;;4.55;1.40;;;;;;;1.92;46.42;101893.09;1655988;86;20897;-66
2022/11/30 11:05:24;;;;;;;10.18;2.50;;;;;;;1.79;46.81;101887.00;1646347;87;21100;-64
2022/11/30 11:08:03;;;;;;;5.03;1.67;;;;;;;1.70;47.65;101893.03;1633658;86;21539;-63
2022/11/30 11:10:43;;;;;;;6.72;3.10;;;;;;;1.64;48.17;101882.26;1645201;86;20920;-64
2022/11/30 11:13:38;;;;;;;9.85;3.25;;;;;;;1.58;48.52;101899.29;1645679;87;22496;-64
2022/11/30 11:16:09;;;;;;;5.95;2.42;;;;;;;1.51;48.96;101874.37;1626927;87;20990;-66
2022/11/30 11:18:38;;;;;;;4.30;1.87;;;;;;;1.43;49.03;101888.11;1655838;85;20963;-66
2022/11/30 11:21:10;;;;;;;7.33;1.57;;;;;;;1.37;49.46;101884.61;1658938;86;21905;-65
2022/11/30 11:23:41;;;;;;;5.85;1.50;;;;;;;1.39;49.70;101882.30;1657760;86;20991;-68
2022/11/30 11:26:28;;;;;;;10.68;3.83;;;;;;;1.50;49.46;101883.47;1658959;86;22152;-70
2022/11/30 11:28:58;;;;;;;8.55;4.55;;;;;;;1.62;49.58;101883.61;1658668;86;21018;-65
2022/11/30 11:31:42;;;;;;;6.33;2.72;;;;;;;1.79;49.51;101874.97;1658555;86;21046;-67
2022/11/30 11:34:25;;;;;;;3.60;1.80;;;;;;;1.92;48.79;101882.34;1658254;85;21474;-66
2022/11/30 11:37:20;;;;;;;9.38;1.90;;;;;;;2.06;48.61;101894.44;1658119;86;20971;-66
2022/11/30 11:40:04;;;;;;;5.03;1.80;;;;;;;2.13;48.03;101870.02;1658740;85;21203;-66
2022/11/30 11:42:51;;;;;;;3.60;1.22;;;;;;;2.20;48.31;101875.64;1658096;86;20952;-65
2022/11/30 11:45:27;;;;;;;5.15;1.65;;;;;;;2.26;47.50;101869.30;1658308;86;22339;-65